Kezdőlap
METAR-TAF:

METAR-TAF

Repülőterek :

Maracaibo, Venezuela

földrajzi szélesség: 10-34N, földrajzi hosszúság: 071-44W, magasság: 66 m

Jelenlegi meteorológiai megfigyelések

A jelentés 1 órával és 5 perccel ezelõtt készült, 14:02 UTC
Hőmérséklet
Légköri nyomás

METAR: SVMC 151402Z AUTO NIL

Idő: 11:07 (15:07 UTC)

Előrejelzés

A jelentés 5 órával és 7 perccel ezelõtt készült, 10:00 UTC
Az előrejelzés 15-én 12 óra UTC és 16-én 12 óra UTC között érvényes
Dél-délnyugati szél 7 kt
Látótávolság 10 km, vagy több
Szórványos felhőzet 1600 lábon
10-én 12 óra UTC és 10-én 16 óra UTC között ideiglenes
Délkeleti szél 8 kt
Látótávolság: 9000 m
enyhe szitálás
09-én 2300 órától UTC szerint
Keleti szél 3 kt
Látótávolság 10 km, vagy több

TAF: SVMC 151000Z 1512/1612 21007KT 9999 SCT016 TX31/19Z TN23/08Z TEMPO 1012/1016 13008KT 9000 -DZ FM092300 08003KT 9999 BNK016

Meteorológiai megfigyelések és előrejelzések több, mint 4000 repülőtéren (METAR és TAF jelentéseket).

A térképen piros és sárga pontok jelzik az elérhető meteorológiai állomásokat.

Mozgassa az egeret a pont fölött, hogy megjelenjen az állomás neve.

Azután kattintson az időjárási megfigyelések és előrejelzések megtekintéséhez.

A térkép megváltoztatása: kattintson a fekete keresztel jelölt zöld gombra ráközelítéshez, a vonallal jelölt zöld gombra távolításhoz, vagy a zöld nyilakra a szomszédos térképek eléréséhez.


METAR-TAF: